Time;durP1;ratioP1;P1;durP2;ratioP2;P2;SDS_P1;SDS_P2;PMS_P1;PMS_P2;Temp;Humidity;BMP_temperature;BMP_pressure;BME280_temperature;BME280_humidity;BME280_pressure;Samples;Min_cycle;Max_cycle;Signal;HPM_P1;HPM_P2
2023/07/02 00:02:15;;;;;;;20.50;7.20;;;15.90;99.90;;;;;;5070907;28;20036;-71
2023/07/02 00:04:42;;;;;;;21.50;7.03;;;15.90;99.90;;;;;;5050309;28;20101;-71
2023/07/02 00:07:07;;;;;;;20.73;7.03;;;15.80;99.90;;;;;;5050056;28;20044;-69
2023/07/02 00:09:33;;;;;;;24.65;7.35;;;15.80;99.90;;;;;;5065473;28;20131;-65
2023/07/02 00:11:59;;;;;;;22.52;7.68;;;15.80;99.90;;;;;;5049752;28;20501;-70
2023/07/02 00:14:24;;;;;;;22.88;7.72;;;15.80;99.90;;;;;;5049182;28;20593;-65
2023/07/02 00:16:50;;;;;;;18.70;7.05;;;15.70;99.90;;;;;;5066106;28;20041;-77
2023/07/02 00:19:16;;;;;;;23.75;8.82;;;15.70;99.90;;;;;;5066245;28;20041;-67
2023/07/02 00:21:42;;;;;;;22.73;8.02;;;15.70;99.90;;;;;;5069918;28;20032;-73
2023/07/02 00:24:11;;;;;;;24.00;7.68;;;15.70;99.90;;;;;;5086056;28;20035;-72
2023/07/02 00:26:38;;;;;;;25.27;8.15;;;15.70;99.90;;;;;;5084739;28;20475;-70
2023/07/02 00:29:05;;;;;;;21.75;8.27;;;15.70;99.90;;;;;;5069256;28;20051;-74
2023/07/02 00:31:31;;;;;;;23.20;9.02;;;15.60;99.90;;;;;;5065042;28;20052;-65
2023/07/02 00:33:57;;;;;;;21.27;7.20;;;15.60;99.90;;;;;;5049184;28;20118;-66
2023/07/02 00:36:23;;;;;;;22.25;7.53;;;15.60;99.90;;;;;;5053397;28;20041;-69
2023/07/02 00:38:49;;;;;;;20.13;7.90;;;15.60;99.90;;;;;;5065251;28;20037;-70
2023/07/02 00:41:15;;;;;;;23.38;7.50;;;15.60;99.90;;;;;;5065879;28;20080;-70
2023/07/02 00:43:44;;;;;;;26.77;8.05;;;15.50;99.90;;;;;;5085065;28;20035;-68
2023/07/02 00:46:19;;;;;;;22.83;7.60;;;15.50;99.90;;;;;;5069471;28;20039;-67
2023/07/02 00:48:55;;;;;;;28.77;9.13;;;15.50;99.90;;;;;;5064300;28;20047;-75
2023/07/02 00:51:21;;;;;;;23.63;8.57;;;15.50;99.90;;;;;;5066172;28;20037;-75
2023/07/02 00:53:48;;;;;;;26.30;9.25;;;15.50;99.90;;;;;;5066061;28;20047;-67
2023/07/02 00:56:14;;;;;;;22.83;8.48;;;15.50;99.90;;;;;;5048932;28;20036;-66
2023/07/02 00:58:46;;;;;;;29.38;7.95;;;15.40;99.90;;;;;;5048130;28;20033;-71
2023/07/02 01:01:14;;;;;;;26.75;8.80;;;15.40;99.90;;;;;;5077706;28;20037;-66
2023/07/02 01:03:53;;;;;;;22.42;8.52;;;15.40;99.90;;;;;;5065390;28;20138;-71
2023/07/02 01:06:28;;;;;;;24.65;8.57;;;15.40;99.90;;;;;;5064751;28;20135;-75
2023/07/02 01:08:56;;;;;;;26.05;8.98;;;15.40;99.90;;;;;;5064515;28;20422;-73
2023/07/02 01:11:26;;;;;;;24.27;8.98;;;15.40;99.90;;;;;;5064903;28;20085;-73
2023/07/02 01:13:55;;;;;;;24.58;8.65;;;15.30;99.90;;;;;;5064963;28;20123;-74
2023/07/02 01:16:22;;;;;;;24.33;8.32;;;15.30;99.90;;;;;;5065360;28;20044;-71
2023/07/02 01:18:50;;;;;;;28.48;9.00;;;15.30;99.90;;;;;;5047896;28;20063;-75
2023/07/02 01:21:18;;;;;;;24.08;9.18;;;15.30;99.90;;;;;;5047904;28;20044;-76
2023/07/02 01:23:44;;;;;;;29.08;9.02;;;15.20;99.90;;;;;;5048367;28;20036;-69
2023/07/02 01:26:10;;;;;;;27.90;9.23;;;15.20;99.90;;;;;;5047795;28;20474;-74
2023/07/02 01:28:37;;;;;;;26.20;9.75;;;15.30;99.90;;;;;;5063802;28;20373;-78
2023/07/02 01:31:05;;;;;;;28.90;8.73;;;15.20;99.90;;;;;;5065240;28;20454;-76
2023/07/02 01:33:31;;;;;;;31.90;9.40;;;15.20;99.90;;;;;;5048730;28;20604;-68
2023/07/02 01:35:57;;;;;;;26.67;8.82;;;15.10;99.90;;;;;;5064810;28;20094;-74
2023/07/02 01:38:22;;;;;;;27.42;9.20;;;15.10;99.90;;;;;;5064581;28;20127;-67
2023/07/02 01:40:48;;;;;;;25.13;8.98;;;15.00;99.90;;;;;;5064371;28;20432;-65
2023/07/02 01:43:14;;;;;;;26.38;8.98;;;15.00;99.90;;;;;;5064938;28;20036;-73
2023/07/02 01:45:41;;;;;;;28.15;9.88;;;15.00;99.90;;;;;;5065403;28;20068;-70
2023/07/02 01:48:07;;;;;;;29.08;8.65;;;14.90;99.90;;;;;;5063897;28;20038;-75
2023/07/02 01:50:33;;;;;;;26.20;9.43;;;14.90;99.90;;;;;;5064476;28;20125;-75
2023/07/02 01:52:59;;;;;;;29.77;9.02;;;14.90;99.90;;;;;;5064362;28;20147;-78
2023/07/02 01:55:24;;;;;;;27.38;9.90;;;14.90;99.90;;;;;;5064243;28;20036;-71
2023/07/02 01:57:50;;;;;;;28.73;9.93;;;14.80;99.90;;;;;;5063189;28;20106;-71
2023/07/02 02:00:17;;;;;;;29.70;10.00;;;14.80;99.90;;;;;;5064712;28;20573;-72
2023/07/02 02:02:43;;;;;;;32.47;10.02;;;14.80;99.90;;;;;;5047404;28;20799;-72
2023/07/02 02:05:12;;;;;;;28.58;9.60;;;14.80;99.90;;;;;;5060706;28;20040;-74
2023/07/02 02:07:37;;;;;;;27.75;9.23;;;14.70;99.90;;;;;;5047878;28;20072;-74
2023/07/02 02:10:04;;;;;;;29.58;9.82;;;14.70;99.90;;;;;;5063819;28;20072;-66
2023/07/02 02:12:30;;;;;;;27.67;10.73;;;14.70;99.90;;;;;;5046841;28;20096;-71
2023/07/02 02:14:56;;;;;;;30.58;9.75;;;14.70;99.90;;;;;;5064780;28;20795;-70
2023/07/02 02:17:23;;;;;;;34.15;10.43;;;14.60;99.90;;;;;;5063691;28;20037;-73
2023/07/02 02:19:49;;;;;;;35.90;9.63;;;14.60;99.90;;;;;;5063857;28;20052;-73
2023/07/02 02:22:15;;;;;;;38.97;10.45;;;14.60;99.90;;;;;;5064035;28;20082;-75
2023/07/02 02:24:42;;;;;;;37.92;10.07;;;14.60;99.90;;;;;;5063944;28;20131;-71
2023/07/02 02:27:08;;;;;;;28.77;10.68;;;14.50;99.90;;;;;;5063738;28;20028;-75
2023/07/02 02:29:34;;;;;;;35.28;10.38;;;14.50;99.90;;;;;;5080165;28;20036;-69
2023/07/02 02:32:00;;;;;;;35.10;10.18;;;14.50;99.90;;;;;;5079909;28;20039;-73
2023/07/02 02:34:25;;;;;;;30.58;10.15;;;14.40;99.90;;;;;;5047465;28;20147;-73
2023/07/02 02:36:51;;;;;;;30.10;10.48;;;14.40;99.90;;;;;;5063437;28;20033;-71
2023/07/02 02:39:17;;;;;;;34.22;10.35;;;14.40;99.90;;;;;;5046329;28;20102;-73
2023/07/02 02:41:42;;;;;;;33.83;10.38;;;14.30;99.90;;;;;;5063697;28;20036;-72
2023/07/02 02:44:08;;;;;;;31.88;9.75;;;14.30;99.90;;;;;;5063551;28;20708;-71
2023/07/02 02:46:33;;;;;;;26.98;9.43;;;14.30;99.90;;;;;;5064238;28;20036;-70
2023/07/02 02:48:59;;;;;;;28.50;10.15;;;14.20;99.90;;;;;;5063363;28;20040;-72
2023/07/02 02:51:25;;;;;;;30.52;10.30;;;14.20;99.90;;;;;;5063583;28;20538;-73
2023/07/02 02:53:50;;;;;;;33.40;11.18;;;14.20;99.90;;;;;;5046870;28;20059;-71
2023/07/02 02:56:16;;;;;;;33.35;11.02;;;14.10;99.90;;;;;;5063856;28;20093;-71
2023/07/02 02:58:43;;;;;;;30.17;9.82;;;14.10;99.90;;;;;;5064454;28;20045;-77
2023/07/02 03:01:10;;;;;;;34.50;10.23;;;14.10;99.90;;;;;;5053566;28;20041;-73
2023/07/02 03:03:45;;;;;;;34.45;10.23;;;14.00;99.90;;;;;;5046432;28;20063;-73
2023/07/02 03:06:15;;;;;;;33.50;9.95;;;14.00;99.90;;;;;;5063924;28;20048;-77
2023/07/02 03:08:41;;;;;;;32.53;11.00;;;14.00;99.90;;;;;;5046650;28;20132;-73
2023/07/02 03:11:07;;;;;;;33.45;11.20;;;13.90;99.90;;;;;;5062710;28;20128;-67
2023/07/02 03:13:32;;;;;;;36.85;11.15;;;13.90;99.90;;;;;;5074246;28;20348;-74
2023/07/02 03:15:59;;;;;;;30.15;9.77;;;13.90;99.90;;;;;;5067384;28;20107;-70
2023/07/02 03:18:24;;;;;;;31.27;10.18;;;13.80;99.90;;;;;;5084133;28;20058;-76
2023/07/02 03:20:53;;;;;;;34.42;10.05;;;13.80;99.90;;;;;;5054048;28;20041;-73
2023/07/02 03:23:19;;;;;;;27.17;9.38;;;13.80;99.90;;;;;;5046936;28;20037;-74
2023/07/02 03:25:44;;;;;;;35.75;9.50;;;13.80;99.90;;;;;;5063107;28;20036;-76
2023/07/02 03:28:10;;;;;;;30.50;10.20;;;13.80;99.90;;;;;;5063538;28;20044;-78
2023/07/02 03:30:36;;;;;;;29.33;9.68;;;13.80;99.90;;;;;;5080378;28;20052;-72
2023/07/02 03:33:01;;;;;;;34.45;11.13;;;13.80;99.90;;;;;;5063833;28;20082;-72
2023/07/02 03:35:27;;;;;;;34.90;9.77;;;13.80;99.90;;;;;;5063683;28;20799;-77
2023/07/02 03:37:53;;;;;;;30.63;10.00;;;13.80;99.90;;;;;;5063105;28;20090;-74
2023/07/02 03:40:19;;;;;;;27.73;9.60;;;13.80;99.90;;;;;;5063478;28;20068;-69
2023/07/02 03:42:44;;;;;;;40.97;10.85;;;13.80;99.90;;;;;;5048290;28;20048;-76
2023/07/02 03:45:10;;;;;;;27.23;10.30;;;13.80;99.90;;;;;;5087483;28;20044;-71
2023/07/02 03:47:36;;;;;;;31.20;10.18;;;13.90;99.90;;;;;;5069769;28;20280;-77
2023/07/02 03:50:02;;;;;;;29.98;10.30;;;13.90;99.90;;;;;;5067130;28;20547;-74
2023/07/02 03:52:28;;;;;;;36.35;10.65;;;13.90;99.90;;;;;;5050350;28;20049;-75
2023/07/02 03:54:53;;;;;;;33.33;11.38;;;13.90;99.90;;;;;;5049895;28;20052;-73
2023/07/02 03:57:19;;;;;;;34.05;10.88;;;13.90;99.90;;;;;;5049964;28;20052;-70
2023/07/02 03:59:45;;;;;;;29.15;10.57;;;14.00;99.90;;;;;;5066369;28;20055;-68
2023/07/02 04:02:11;;;;;;;35.05;10.52;;;14.00;99.90;;;;;;5066433;28;20055;-78
2023/07/02 04:04:37;;;;;;;35.83;10.57;;;14.10;99.90;;;;;;5066713;28;20455;-72
2023/07/02 04:07:02;;;;;;;30.02;9.48;;;14.20;99.90;;;;;;5069735;28;20047;-75
2023/07/02 04:09:28;;;;;;;29.70;10.10;;;14.30;99.90;;;;;;5078095;28;20040;-72
2023/07/02 04:11:54;;;;;;;32.90;11.13;;;14.40;99.90;;;;;;5066356;28;20055;-73
2023/07/02 04:14:19;;;;;;;31.08;10.13;;;14.50;99.90;;;;;;5066137;28;20045;-68
2023/07/02 04:16:45;;;;;;;32.25;9.85;;;14.50;99.90;;;;;;5049703;28;20051;-70
2023/07/02 04:19:14;;;;;;;30.10;9.98;;;14.50;99.90;;;;;;5062963;28;20081;-74
2023/07/02 04:21:40;;;;;;;30.23;11.52;;;14.50;99.90;;;;;;5068333;28;20040;-74
2023/07/02 04:24:06;;;;;;;35.03;11.55;;;14.50;99.90;;;;;;5066254;28;20589;-72
2023/07/02 04:26:32;;;;;;;32.97;10.27;;;14.50;99.90;;;;;;5066545;28;20093;-74
2023/07/02 04:29:02;;;;;;;33.83;11.75;;;14.50;99.90;;;;;;5049729;28;20143;-76
2023/07/02 04:31:28;;;;;;;37.50;17.02;;;14.60;99.90;;;;;;5049732;28;20032;-77
2023/07/02 04:33:54;;;;;;;63.83;27.02;;;14.70;99.90;;;;;;5066480;28;20035;-75
2023/07/02 04:36:22;;;;;;;43.80;14.32;;;14.70;99.90;;;;;;5066152;28;20051;-78
2023/07/02 04:38:48;;;;;;;127.38;49.88;;;14.80;99.90;;;;;;5065742;28;20040;-75
2023/07/02 04:41:14;;;;;;;35.97;12.30;;;14.80;99.90;;;;;;5065960;28;20037;-72
2023/07/02 04:43:40;;;;;;;45.50;17.17;;;14.80;99.90;;;;;;5066041;28;20786;-72
2023/07/02 04:46:08;;;;;;;147.25;53.45;;;14.70;99.90;;;;;;5067140;28;20045;-72
2023/07/02 04:48:34;;;;;;;53.83;22.73;;;14.70;99.90;;;;;;5065092;28;20090;-73
2023/07/02 04:51:00;;;;;;;39.05;14.27;;;14.60;99.90;;;;;;5065903;28;20040;-68
2023/07/02 04:53:25;;;;;;;32.13;9.60;;;14.50;99.90;;;;;;5066304;28;20853;-70
2023/07/02 04:55:51;;;;;;;23.75;9.35;;;14.50;99.90;;;;;;5047532;28;20044;-76
2023/07/02 04:58:17;;;;;;;33.25;10.90;;;14.60;99.90;;;;;;5048284;28;20047;-68
2023/07/02 05:00:42;;;;;;;38.75;13.52;;;15.10;99.90;;;;;;5075625;28;20135;-74
2023/07/02 05:03:08;;;;;;;28.90;9.82;;;15.80;99.90;;;;;;5085058;28;20070;-70
2023/07/02 05:05:36;;;;;;;27.70;9.48;;;16.30;99.90;;;;;;5077187;28;20056;-73
2023/07/02 05:08:04;;;;;;;31.15;10.48;;;16.70;99.90;;;;;;5048901;28;20072;-69
2023/07/02 05:10:30;;;;;;;28.38;9.18;;;16.40;99.90;;;;;;5065344;28;20051;-68
2023/07/02 05:12:55;;;;;;;27.00;8.60;;;16.40;99.90;;;;;;5048193;28;20044;-69
2023/07/02 05:15:21;;;;;;;35.78;11.80;;;16.40;99.90;;;;;;5065349;28;20041;-68
2023/07/02 05:17:47;;;;;;;37.03;13.15;;;16.60;99.90;;;;;;5058111;28;20071;-74
2023/07/02 05:20:13;;;;;;;31.88;11.60;;;17.00;99.90;;;;;;5079534;28;20049;-73
2023/07/02 05:22:38;;;;;;;26.30;8.75;;;17.40;99.90;;;;;;5065230;28;20476;-67
2023/07/02 05:25:04;;;;;;;24.45;9.52;;;17.50;99.90;;;;;;5064946;28;20036;-65
2023/07/02 05:27:30;;;;;;;36.15;8.80;;;17.30;99.90;;;;;;5063885;28;20040;-73
2023/07/02 05:29:56;;;;;;;29.48;10.30;;;17.40;99.90;;;;;;5051198;28;20411;-69
2023/07/02 05:32:21;;;;;;;22.77;7.15;;;17.20;99.90;;;;;;5068483;28;20487;-66
2023/07/02 05:34:47;;;;;;;24.13;7.72;;;16.90;99.90;;;;;;5081032;28;20036;-73
2023/07/02 05:37:13;;;;;;;28.33;8.90;;;16.80;99.90;;;;;;5047850;28;20052;-72
2023/07/02 05:39:38;;;;;;;23.77;7.05;;;16.60;99.90;;;;;;5063939;28;20424;-70
2023/07/02 05:42:04;;;;;;;24.38;7.88;;;16.40;99.90;;;;;;5047560;28;20106;-68
2023/07/02 05:44:30;;;;;;;23.90;7.63;;;16.40;99.90;;;;;;5064845;28;20040;-68
2023/07/02 05:46:55;;;;;;;20.02;6.97;;;16.50;99.90;;;;;;5047453;28;20040;-69
2023/07/02 05:49:21;;;;;;;21.20;8.13;;;16.50;99.90;;;;;;5065072;28;20048;-72
2023/07/02 05:51:47;;;;;;;21.20;7.00;;;16.60;99.90;;;;;;5064691;28;20042;-68
2023/07/02 05:54:13;;;;;;;23.58;6.97;;;16.70;99.90;;;;;;5063832;28;20066;-67
2023/07/02 05:56:39;;;;;;;23.50;7.70;;;16.60;99.90;;;;;;5048164;28;20499;-71
2023/07/02 05:59:04;;;;;;;26.45;7.57;;;16.60;99.90;;;;;;5068394;28;20032;-71
2023/07/02 06:01:30;;;;;;;22.75;7.25;;;16.50;99.90;;;;;;5068302;28;20483;-74
2023/07/02 06:03:56;;;;;;;19.13;6.95;;;16.40;99.90;;;;;;5084169;28;20059;-65
2023/07/02 06:06:25;;;;;;;23.13;7.55;;;16.30;99.90;;;;;;5069447;28;20044;-72
2023/07/02 06:08:51;;;;;;;22.88;7.30;;;16.20;99.90;;;;;;5046817;28;20048;-70
2023/07/02 06:11:17;;;;;;;25.92;7.25;;;16.20;99.90;;;;;;5064092;28;20420;-69
2023/07/02 06:13:42;;;;;;;24.88;8.43;;;16.10;99.90;;;;;;5063748;28;20084;-66
2023/07/02 06:16:09;;;;;;;21.90;6.78;;;16.10;99.90;;;;;;5064866;28;20135;-65
2023/07/02 06:18:34;;;;;;;31.40;7.43;;;16.10;99.90;;;;;;5063792;28;20040;-66
2023/07/02 06:21:00;;;;;;;23.92;7.80;;;16.00;99.90;;;;;;5046927;28;20056;-65
2023/07/02 06:23:26;;;;;;;25.40;7.05;;;16.00;99.90;;;;;;5064116;28;20106;-66
2023/07/02 06:25:52;;;;;;;31.80;8.57;;;15.90;99.90;;;;;;5064006;28;20121;-67
2023/07/02 06:28:19;;;;;;;24.83;7.30;;;16.00;99.90;;;;;;5055506;28;20119;-68
2023/07/02 06:30:45;;;;;;;17.67;6.93;;;16.20;99.90;;;;;;5067892;28;20079;-67
2023/07/02 06:33:10;;;;;;;20.63;6.93;;;16.30;99.90;;;;;;5084454;28;20040;-71
2023/07/02 06:35:36;;;;;;;23.25;7.43;;;16.40;99.90;;;;;;5049020;28;20148;-66
2023/07/02 06:38:02;;;;;;;24.80;7.22;;;16.50;99.90;;;;;;5063242;28;20044;-67
2023/07/02 06:40:27;;;;;;;18.83;7.15;;;16.60;99.90;;;;;;5063812;28;20041;-69
2023/07/02 06:42:53;;;;;;;23.83;6.85;;;16.70;99.90;;;;;;5067908;28;20144;-64
2023/07/02 06:45:18;;;;;;;19.33;6.35;;;16.80;99.90;;;;;;5047029;28;20040;-70
2023/07/02 06:47:44;;;;;;;20.08;6.25;;;16.90;99.90;;;;;;5063234;28;20062;-72
2023/07/02 06:50:10;;;;;;;27.23;7.43;;;17.00;99.90;;;;;;5046718;28;20052;-64
2023/07/02 06:52:36;;;;;;;17.52;6.25;;;16.90;99.90;;;;;;5080546;28;20044;-72
2023/07/02 06:55:03;;;;;;;22.27;6.63;;;16.90;99.90;;;;;;5046880;28;20041;-65
2023/07/02 06:57:29;;;;;;;20.25;6.00;;;16.90;99.90;;;;;;5062154;28;20063;-64
2023/07/02 06:59:59;;;;;;;23.63;6.18;;;16.90;99.90;;;;;;5092729;28;20075;-67
2023/07/02 07:02:24;;;;;;;22.98;6.10;;;16.90;99.90;;;;;;5066545;28;20449;-70
2023/07/02 07:04:50;;;;;;;24.50;6.80;;;17.00;99.90;;;;;;5082663;28;20413;-66
2023/07/02 07:07:16;;;;;;;18.70;6.75;;;17.00;99.90;;;;;;5062946;28;20706;-66
2023/07/02 07:09:42;;;;;;;20.23;5.30;;;17.10;99.90;;;;;;5063526;28;20129;-70
2023/07/02 07:12:08;;;;;;;21.50;6.15;;;17.20;99.90;;;;;;5046753;28;20841;-67
2023/07/02 07:14:34;;;;;;;23.25;5.38;;;17.20;99.90;;;;;;5082232;28;20147;-67
2023/07/02 07:17:00;;;;;;;14.57;4.20;;;17.20;99.90;;;;;;5081001;28;20041;-66
2023/07/02 07:19:25;;;;;;;13.82;4.22;;;17.20;99.90;;;;;;5050126;28;20045;-69
2023/07/02 07:21:51;;;;;;;17.48;4.30;;;17.10;99.90;;;;;;5067515;28;20566;-66
2023/07/02 07:24:19;;;;;;;13.65;4.10;;;17.10;99.90;;;;;;5050622;28;20044;-69
2023/07/02 07:26:45;;;;;;;18.38;3.67;;;17.10;99.90;;;;;;5050076;28;20043;-66
2023/07/02 07:29:11;;;;;;;12.93;3.90;;;17.10;99.90;;;;;;5065929;28;20045;-65
2023/07/02 07:31:37;;;;;;;17.23;4.80;;;17.20;99.90;;;;;;5067578;28;20044;-69
2023/07/02 07:34:03;;;;;;;14.05;4.15;;;17.20;99.90;;;;;;5050382;28;20393;-69
2023/07/02 07:36:28;;;;;;;16.48;3.92;;;17.30;99.90;;;;;;5050383;28;20032;-69
2023/07/02 07:38:54;;;;;;;16.83;4.00;;;17.20;99.90;;;;;;5066641;28;20043;-69
2023/07/02 07:41:20;;;;;;;15.27;3.72;;;17.10;99.90;;;;;;5067574;28;20040;-66
2023/07/02 07:43:45;;;;;;;15.40;3.70;;;17.10;99.90;;;;;;5067557;28;20040;-69
2023/07/02 07:46:14;;;;;;;12.90;3.90;;;17.10;99.90;;;;;;5067064;28;20044;-66
2023/07/02 07:48:40;;;;;;;15.65;3.58;;;17.20;99.90;;;;;;5066441;28;20048;-68
2023/07/02 07:51:05;;;;;;;15.15;3.35;;;17.10;99.90;;;;;;5066671;28;20534;-64
2023/07/02 07:53:34;;;;;;;12.05;3.42;;;17.20;99.90;;;;;;5066997;28;20048;-69
2023/07/02 07:56:00;;;;;;;12.35;3.30;;;17.30;99.90;;;;;;5065958;28;20101;-69
2023/07/02 07:58:25;;;;;;;12.73;3.28;;;17.40;99.90;;;;;;5065746;28;20048;-70
2023/07/02 08:00:51;;;;;;;16.98;3.47;;;17.40;99.40;;;;;;5066298;28;20080;-71
2023/07/02 08:03:16;;;;;;;12.40;3.80;;;17.40;99.90;;;;;;5065898;28;20078;-72
2023/07/02 08:05:42;;;;;;;11.70;3.05;;;17.30;99.90;;;;;;5059943;28;20059;-69
2023/07/02 08:08:08;;;;;;;15.10;3.10;;;17.30;99.60;;;;;;5066094;28;20040;-71
2023/07/02 08:10:34;;;;;;;8.82;3.05;;;17.30;99.60;;;;;;5066437;28;20079;-66
2023/07/02 08:12:59;;;;;;;12.27;3.20;;;17.40;99.90;;;;;;5078487;28;20079;-70
2023/07/02 08:15:25;;;;;;;16.17;4.13;;;17.50;99.90;;;;;;5066339;28;20456;-68
2023/07/02 08:17:54;;;;;;;15.85;3.50;;;17.50;99.90;;;;;;5065746;28;20560;-64
2023/07/02 08:20:19;;;;;;;15.13;3.88;;;17.70;99.40;;;;;;5066111;28;20492;-69
2023/07/02 08:22:45;;;;;;;14.90;4.03;;;17.80;99.30;;;;;;5066408;28;20136;-67
2023/07/02 08:25:10;;;;;;;15.07;3.58;;;17.80;99.50;;;;;;5065882;28;20041;-67
2023/07/02 08:27:36;;;;;;;12.80;3.38;;;17.80;99.40;;;;;;5065177;28;20058;-69
2023/07/02 08:30:02;;;;;;;17.95;2.88;;;17.70;98.70;;;;;;5064899;28;20147;-66
2023/07/02 08:32:27;;;;;;;14.85;3.75;;;17.60;98.00;;;;;;5065971;28;20036;-72
2023/07/02 08:34:53;;;;;;;11.43;3.65;;;17.50;98.40;;;;;;5065866;28;20075;-66
2023/07/02 08:37:21;;;;;;;13.93;3.83;;;17.30;98.80;;;;;;5065410;28;20183;-69
2023/07/02 08:39:48;;;;;;;15.05;4.07;;;17.30;99.40;;;;;;5065324;28;20043;-69
2023/07/02 08:42:14;;;;;;;14.55;3.65;;;17.30;99.60;;;;;;5048955;28;20047;-65
2023/07/02 08:44:41;;;;;;;13.73;3.85;;;17.20;99.90;;;;;;5068170;28;20055;-66
2023/07/02 08:47:07;;;;;;;13.10;4.00;;;17.20;99.90;;;;;;5068319;28;20469;-66
2023/07/02 08:49:32;;;;;;;13.25;4.25;;;17.20;99.90;;;;;;5069504;28;20048;-65
2023/07/02 08:51:58;;;;;;;16.75;4.25;;;17.10;99.90;;;;;;5050221;28;20123;-68
2023/07/02 08:54:24;;;;;;;17.15;4.13;;;17.10;99.90;;;;;;5065148;28;20491;-66
2023/07/02 08:56:50;;;;;;;13.23;4.07;;;16.90;99.90;;;;;;5048901;28;20101;-74
2023/07/02 08:59:15;;;;;;;17.35;4.43;;;16.70;99.90;;;;;;5048306;28;20036;-69
2023/07/02 09:01:52;;;;;;;17.17;4.72;;;16.70;99.90;;;;;;5049223;28;20080;-70
2023/07/02 09:04:24;;;;;;;13.02;4.47;;;16.70;99.90;;;;;;5065430;28;20140;-74
2023/07/02 09:07:02;;;;;;;14.45;4.75;;;16.60;99.90;;;;;;5065439;28;20058;-72
2023/07/02 09:09:29;;;;;;;17.00;5.55;;;16.60;99.90;;;;;;5065247;28;20045;-76
2023/07/02 09:11:55;;;;;;;16.70;5.03;;;16.70;99.90;;;;;;5065229;28;20044;-67
2023/07/02 09:14:27;;;;;;;19.80;5.63;;;16.60;99.90;;;;;;5064408;28;20040;-68
2023/07/02 09:17:08;;;;;;;18.13;5.45;;;16.50;99.90;;;;;;5048536;28;20391;-65
2023/07/02 09:19:35;;;;;;;17.63;4.95;;;16.40;99.90;;;;;;5048702;28;20451;-71
2023/07/02 09:22:02;;;;;;;18.33;4.93;;;16.30;99.90;;;;;;5047814;28;20045;-73
2023/07/02 09:24:31;;;;;;;14.95;5.30;;;16.30;99.90;;;;;;5064717;28;20182;-71
2023/07/02 09:26:59;;;;;;;16.63;4.88;;;16.20;99.90;;;;;;5047659;28;20044;-71
2023/07/02 09:29:28;;;;;;;16.65;4.22;;;16.20;99.90;;;;;;5047817;28;20104;-66
2023/07/02 09:31:55;;;;;;;16.05;3.72;;;16.20;99.90;;;;;;5047732;28;20491;-70
2023/07/02 09:34:30;;;;;;;16.73;5.05;;;16.20;99.90;;;;;;5048140;28;20040;-69
2023/07/02 09:36:57;;;;;;;12.98;4.07;;;16.20;99.90;;;;;;5081029;28;20178;-71
2023/07/02 09:39:28;;;;;;;14.32;4.07;;;16.30;99.90;;;;;;5067818;28;20503;-68
2023/07/02 09:42:05;;;;;;;22.45;5.20;;;16.50;99.90;;;;;;5084445;28;20411;-67
2023/07/02 09:44:32;;;;;;;21.48;4.95;;;16.60;99.90;;;;;;5065148;28;20039;-68
2023/07/02 09:47:08;;;;;;;15.45;3.97;;;16.80;99.90;;;;;;5047574;28;20043;-68
2023/07/02 09:49:38;;;;;;;11.80;4.00;;;17.00;99.90;;;;;;5064926;28;20040;-65
2023/07/02 09:52:09;;;;;;;18.30;4.00;;;17.00;99.90;;;;;;5064017;28;20037;-71
2023/07/02 09:54:36;;;;;;;13.13;4.00;;;17.10;99.90;;;;;;5064275;28;20365;-71
2023/07/02 09:57:03;;;;;;;14.77;4.00;;;17.20;99.90;;;;;;5063925;28;20559;-67
2023/07/02 09:59:29;;;;;;;12.75;3.45;;;17.20;99.60;;;;;;5047193;28;20036;-66
2023/07/02 10:01:55;;;;;;;14.90;2.97;;;17.30;98.80;;;;;;5064282;28;20377;-70
2023/07/02 10:04:24;;;;;;;15.60;2.90;;;17.40;98.40;;;;;;5063909;28;20095;-66
2023/07/02 10:06:55;;;;;;;17.17;3.90;;;17.60;98.20;;;;;;5062900;28;20056;-68
2023/07/02 10:09:38;;;;;;;15.60;3.80;;;17.70;98.30;;;;;;5067339;28;20395;-67
2023/07/02 10:12:24;;;;;;;12.43;3.10;;;17.70;97.20;;;;;;5063966;28;20052;-69
2023/07/02 10:14:52;;;;;;;14.70;3.40;;;17.60;96.80;;;;;;5063987;28;20048;-70
2023/07/02 10:17:30;;;;;;;16.92;4.47;;;17.60;97.50;;;;;;5063801;28;20040;-64
2023/07/02 10:19:58;;;;;;;11.77;3.30;;;17.50;97.40;;;;;;5047519;28;20040;-69
2023/07/02 10:22:24;;;;;;;18.17;4.57;;;17.60;97.80;;;;;;5063369;28;20425;-68
2023/07/02 10:24:59;;;;;;;14.68;4.10;;;17.50;97.80;;;;;;5063880;28;20412;-69
2023/07/02 10:27:40;;;;;;;19.60;4.07;;;17.60;97.90;;;;;;5063332;28;20044;-67
2023/07/02 10:30:07;;;;;;;15.55;3.88;;;17.70;98.00;;;;;;5064460;28;20045;-68
2023/07/02 10:32:34;;;;;;;11.65;3.90;;;17.80;98.00;;;;;;5046903;28;20576;-71
2023/07/02 10:35:02;;;;;;;13.35;3.58;;;17.80;98.00;;;;;;5063957;28;20232;-67
2023/07/02 10:37:36;;;;;;;16.50;4.13;;;17.70;97.50;;;;;;5046904;28;20052;-77
2023/07/02 10:40:04;;;;;;;;;;;17.80;97.50;;;;;;5047534;28;20033;-69
2023/07/02 10:42:30;;;;;;;10.82;3.05;;;18.00;97.60;;;;;;5062868;28;19960;-70
2023/07/02 10:44:56;;;;;;;12.55;3.80;;;18.20;97.40;;;;;;5064376;28;20064;-69
2023/07/02 10:47:22;;;;;;;13.00;3.60;;;18.40;97.00;;;;;;5063127;28;20040;-65
2023/07/02 10:49:47;;;;;;;13.10;3.72;;;18.50;97.10;;;;;;5080806;28;20046;-69
2023/07/02 10:52:13;;;;;;;11.05;3.10;;;18.60;96.70;;;;;;5080561;28;20044;-66
2023/07/02 10:54:46;;;;;;;9.88;3.03;;;18.60;96.50;;;;;;5067555;28;20083;-71
2023/07/02 10:57:16;;;;;;;10.70;3.08;;;18.50;96.10;;;;;;5067456;28;20057;-71
2023/07/02 10:59:41;;;;;;;13.93;3.05;;;18.40;96.10;;;;;;5050793;28;20683;-66
2023/07/02 11:02:09;;;;;;;10.70;3.35;;;18.30;95.70;;;;;;5067324;28;20044;-67
2023/07/02 11:04:37;;;;;;;15.10;3.08;;;18.10;95.70;;;;;;5068024;28;20047;-68
2023/07/02 11:07:04;;;;;;;14.68;3.47;;;18.10;95.90;;;;;;5065231;28;20090;-69
2023/07/02 11:09:30;;;;;;;10.95;3.78;;;18.00;96.10;;;;;;5067685;28;20648;-67
2023/07/02 11:11:58;;;;;;;16.70;3.38;;;17.90;96.10;;;;;;5050652;28;20403;-70
2023/07/02 11:14:35;;;;;;;13.60;3.60;;;17.90;96.40;;;;;;5050695;28;20040;-66
2023/07/02 11:17:05;;;;;;;15.93;3.63;;;17.90;96.60;;;;;;5051387;28;20036;-67
2023/07/02 11:19:36;;;;;;;12.93;3.55;;;18.10;96.40;;;;;;5067693;28;20032;-72
2023/07/02 11:22:02;;;;;;;12.10;3.65;;;18.30;96.40;;;;;;5067871;28;20113;-67
2023/07/02 11:24:38;;;;;;;17.08;3.97;;;18.40;96.30;;;;;;5049897;28;20067;-70
2023/07/02 11:27:05;;;;;;;13.80;4.35;;;18.30;95.90;;;;;;5050431;28;20572;-67
2023/07/02 11:29:34;;;;;;;12.38;3.50;;;18.20;96.10;;;;;;5067424;28;20048;-64
2023/07/02 11:32:11;;;;;;;14.98;3.30;;;18.10;96.30;;;;;;5066708;28;20389;-67
2023/07/02 11:34:40;;;;;;;14.18;3.60;;;18.10;96.50;;;;;;5050500;28;20048;-71
2023/07/02 11:37:06;;;;;;;16.67;4.93;;;18.10;96.80;;;;;;5084703;28;20520;-68
2023/07/02 11:39:32;;;;;;;12.23;3.67;;;18.10;96.70;;;;;;5086965;28;20343;-64
2023/07/02 11:41:58;;;;;;;16.48;3.58;;;18.00;96.60;;;;;;5087045;28;20127;-68
2023/07/02 11:44:24;;;;;;;12.48;3.47;;;18.00;96.90;;;;;;5052115;28;20032;-67
2023/07/02 11:46:50;;;;;;;13.80;3.85;;;17.90;96.70;;;;;;5066624;28;20047;-68
2023/07/02 11:49:16;;;;;;;18.33;3.28;;;17.90;96.70;;;;;;5066994;28;20391;-67
2023/07/02 11:51:48;;;;;;;12.02;3.33;;;17.90;96.70;;;;;;5066588;28;20614;-68
2023/07/02 11:54:16;;;;;;;11.18;3.40;;;17.90;96.80;;;;;;5049799;28;20041;-68
2023/07/02 11:56:42;;;;;;;14.50;3.53;;;17.90;97.00;;;;;;5065906;28;20082;-71
2023/07/02 11:59:08;;;;;;;11.38;2.60;;;17.90;97.00;;;;;;5064291;28;20036;-72
2023/07/02 12:01:34;;;;;;;10.50;2.92;;;17.90;96.60;;;;;;5087111;28;20134;-72
2023/07/02 12:03:59;;;;;;;16.33;3.47;;;18.00;96.60;;;;;;5085860;28;20127;-62
2023/07/02 12:06:25;;;;;;;11.70;3.13;;;18.10;96.50;;;;;;5074834;28;20048;-70
2023/07/02 12:08:51;;;;;;;14.50;3.63;;;18.20;96.50;;;;;;5050146;28;20068;-74
2023/07/02 12:11:16;;;;;;;15.05;3.22;;;18.40;96.60;;;;;;5049788;28;20089;-65
2023/07/02 12:13:42;;;;;;;13.02;3.00;;;18.30;96.50;;;;;;5076796;28;20695;-70
2023/07/02 12:16:08;;;;;;;12.43;2.55;;;18.20;96.10;;;;;;5069957;28;20047;-66
2023/07/02 12:18:34;;;;;;;10.68;3.05;;;18.10;96.20;;;;;;5071935;28;20041;-69
2023/07/02 12:20:59;;;;;;;10.43;3.28;;;18.00;96.30;;;;;;5065562;28;20072;-65
2023/07/02 12:23:25;;;;;;;13.95;3.55;;;18.00;96.50;;;;;;5066006;28;20072;-65
2023/07/02 12:25:51;;;;;;;12.05;2.78;;;18.00;96.50;;;;;;5065580;28;20044;-70
2023/07/02 12:28:16;;;;;;;14.63;3.13;;;18.00;96.20;;;;;;5065739;28;20488;-69
2023/07/02 12:30:42;;;;;;;13.50;3.40;;;17.90;96.10;;;;;;5066144;28;20105;-67
2023/07/02 12:33:08;;;;;;;15.55;3.67;;;17.90;96.00;;;;;;5065958;28;20044;-66
2023/07/02 12:35:33;;;;;;;11.88;2.97;;;17.90;96.10;;;;;;5049497;28;20468;-70